sensor_id;sensor_type;location;lat;lon;timestamp;temperature;humidity
19261;DHT22;75986;48.588;9.216;2024-03-22T00:00:32;21.20;99.90
19261;DHT22;75986;48.588;9.216;2024-03-22T00:02:59;21.20;99.90
19261;DHT22;75986;48.588;9.216;2024-03-22T00:05:25;21.20;99.90
19261;DHT22;75986;48.588;9.216;2024-03-22T00:07:52;21.20;99.90
19261;DHT22;75986;48.588;9.216;2024-03-22T00:10:18;21.20;99.90
19261;DHT22;75986;48.588;9.216;2024-03-22T00:12:45;21.20;99.90
19261;DHT22;75986;48.588;9.216;2024-03-22T00:15:11;21.20;99.90
19261;DHT22;75986;48.588;9.216;2024-03-22T00:17:42;21.10;99.80
19261;DHT22;75986;48.588;9.216;2024-03-22T00:20:09;21.10;99.90
19261;DHT22;75986;48.588;9.216;2024-03-22T00:22:36;21.10;99.90
19261;DHT22;75986;48.588;9.216;2024-03-22T00:25:03;21.10;99.90
19261;DHT22;75986;48.588;9.216;2024-03-22T00:27:29;21.10;99.90
19261;DHT22;75986;48.588;9.216;2024-03-22T00:29:56;21.10;99.90
19261;DHT22;75986;48.588;9.216;2024-03-22T00:32:22;21.10;99.90
19261;DHT22;75986;48.588;9.216;2024-03-22T00:34:51;21.10;99.90
19261;DHT22;75986;48.588;9.216;2024-03-22T00:37:18;21.10;99.90
19261;DHT22;75986;48.588;9.216;2024-03-22T00:39:45;21.10;99.90
19261;DHT22;75986;48.588;9.216;2024-03-22T00:42:11;21.10;99.90
19261;DHT22;75986;48.588;9.216;2024-03-22T00:44:38;21.10;99.90
19261;DHT22;75986;48.588;9.216;2024-03-22T00:47:05;21.10;99.90
19261;DHT22;75986;48.588;9.216;2024-03-22T00:49:31;21.10;99.90
19261;DHT22;75986;48.588;9.216;2024-03-22T00:52:01;21.10;99.90
19261;DHT22;75986;48.588;9.216;2024-03-22T00:54:27;21.10;99.90
19261;DHT22;75986;48.588;9.216;2024-03-22T00:56:54;21.10;99.90
19261;DHT22;75986;48.588;9.216;2024-03-22T00:59:20;21.10;99.90
19261;DHT22;75986;48.588;9.216;2024-03-22T01:01:46;21.10;99.90
19261;DHT22;75986;48.588;9.216;2024-03-22T01:04:13;21.10;99.90
19261;DHT22;75986;48.588;9.216;2024-03-22T01:06:40;21.10;99.90
19261;DHT22;75986;48.588;9.216;2024-03-22T01:09:09;21.10;99.90
19261;DHT22;75986;48.588;9.216;2024-03-22T01:11:35;21.10;99.90
19261;DHT22;75986;48.588;9.216;2024-03-22T01:14:02;21.10;99.90
19261;DHT22;75986;48.588;9.216;2024-03-22T01:16:28;21.10;99.90
19261;DHT22;75986;48.588;9.216;2024-03-22T01:18:55;21.10;99.90
19261;DHT22;75986;48.588;9.216;2024-03-22T01:21:21;21.10;99.90
19261;DHT22;75986;48.588;9.216;2024-03-22T01:23:48;21.10;99.90
19261;DHT22;75986;48.588;9.216;2024-03-22T01:26:17;21.10;99.90
19261;DHT22;75986;48.588;9.216;2024-03-22T01:28:43;21.10;99.90
19261;DHT22;75986;48.588;9.216;2024-03-22T01:31:10;21.10;99.90
19261;DHT22;75986;48.588;9.216;2024-03-22T01:33:36;21.10;99.90
19261;DHT22;75986;48.588;9.216;2024-03-22T01:36:03;21.10;99.90
19261;DHT22;75986;48.588;9.216;2024-03-22T01:38:30;21.10;99.90
19261;DHT22;75986;48.588;9.216;2024-03-22T01:40:57;21.10;99.90
19261;DHT22;75986;48.588;9.216;2024-03-22T01:43:26;21.10;99.90
19261;DHT22;75986;48.588;9.216;2024-03-22T01:45:52;21.10;99.90
19261;DHT22;75986;48.588;9.216;2024-03-22T01:48:19;21.10;99.90
19261;DHT22;75986;48.588;9.216;2024-03-22T01:50:46;21.10;99.90
19261;DHT22;75986;48.588;9.216;2024-03-22T01:53:13;21.00;99.90
19261;DHT22;75986;48.588;9.216;2024-03-22T01:55:40;21.00;99.90
19261;DHT22;75986;48.588;9.216;2024-03-22T01:58:07;21.00;99.90
19261;DHT22;75986;48.588;9.216;2024-03-22T02:00:36;21.00;99.90
19261;DHT22;75986;48.588;9.216;2024-03-22T02:03:03;21.00;99.90
19261;DHT22;75986;48.588;9.216;2024-03-22T02:08:45;21.00;99.90
19261;DHT22;75986;48.588;9.216;2024-03-22T02:11:11;21.00;99.90
19261;DHT22;75986;48.588;9.216;2024-03-22T02:13:37;21.00;99.90
19261;DHT22;75986;48.588;9.216;2024-03-22T02:16:07;21.00;99.90
19261;DHT22;75986;48.588;9.216;2024-03-22T02:18:34;21.00;99.90
19261;DHT22;75986;48.588;9.216;2024-03-22T02:21:00;21.00;99.90
19261;DHT22;75986;48.588;9.216;2024-03-22T02:23:32;21.00;99.90
19261;DHT22;75986;48.588;9.216;2024-03-22T02:25:59;21.00;99.90
19261;DHT22;75986;48.588;9.216;2024-03-22T02:28:25;21.00;99.90
19261;DHT22;75986;48.588;9.216;2024-03-22T02:30:52;21.00;99.90
19261;DHT22;75986;48.588;9.216;2024-03-22T02:33:18;21.00;99.90
19261;DHT22;75986;48.588;9.216;2024-03-22T02:35:46;21.00;99.90
19261;DHT22;75986;48.588;9.216;2024-03-22T02:38:12;21.00;99.90
19261;DHT22;75986;48.588;9.216;2024-03-22T02:40:43;21.00;99.90
19261;DHT22;75986;48.588;9.216;2024-03-22T02:43:09;21.00;99.90
19261;DHT22;75986;48.588;9.216;2024-03-22T02:45:36;21.00;99.90
19261;DHT22;75986;48.588;9.216;2024-03-22T02:48:03;21.00;99.90
19261;DHT22;75986;48.588;9.216;2024-03-22T02:50:33;21.00;99.90
19261;DHT22;75986;48.588;9.216;2024-03-22T02:52:59;21.00;99.90
19261;DHT22;75986;48.588;9.216;2024-03-22T02:55:26;20.90;99.90
19261;DHT22;75986;48.588;9.216;2024-03-22T02:57:56;20.90;99.90
19261;DHT22;75986;48.588;9.216;2024-03-22T03:00:22;20.90;99.90
19261;DHT22;75986;48.588;9.216;2024-03-22T03:02:49;20.90;99.90
19261;DHT22;75986;48.588;9.216;2024-03-22T03:05:16;20.90;99.90
19261;DHT22;75986;48.588;9.216;2024-03-22T03:07:43;20.90;99.90
19261;DHT22;75986;48.588;9.216;2024-03-22T03:10:09;20.90;99.90
19261;DHT22;75986;48.588;9.216;2024-03-22T03:12:36;20.90;99.90
19261;DHT22;75986;48.588;9.216;2024-03-22T03:15:06;20.90;99.90
19261;DHT22;75986;48.588;9.216;2024-03-22T03:17:33;20.90;99.90
19261;DHT22;75986;48.588;9.216;2024-03-22T03:19:59;20.90;99.90
19261;DHT22;75986;48.588;9.216;2024-03-22T03:22:26;20.90;99.90
19261;DHT22;75986;48.588;9.216;2024-03-22T03:24:52;20.90;99.90
19261;DHT22;75986;48.588;9.216;2024-03-22T03:27:19;20.90;99.90
19261;DHT22;75986;48.588;9.216;2024-03-22T03:29:45;20.90;99.90
19261;DHT22;75986;48.588;9.216;2024-03-22T03:32:14;20.90;99.90
19261;DHT22;75986;48.588;9.216;2024-03-22T03:34:41;20.90;99.90
19261;DHT22;75986;48.588;9.216;2024-03-22T03:37:07;20.90;99.90
19261;DHT22;75986;48.588;9.216;2024-03-22T03:39:34;20.90;99.90
19261;DHT22;75986;48.588;9.216;2024-03-22T03:42:00;20.90;99.90
19261;DHT22;75986;48.588;9.216;2024-03-22T03:44:27;20.90;99.90
19261;DHT22;75986;48.588;9.216;2024-03-22T03:46:53;20.90;99.90
19261;DHT22;75986;48.588;9.216;2024-03-22T03:49:22;20.90;99.90
19261;DHT22;75986;48.588;9.216;2024-03-22T03:51:49;20.90;99.90
19261;DHT22;75986;48.588;9.216;2024-03-22T03:54:15;20.90;99.90
19261;DHT22;75986;48.588;9.216;2024-03-22T03:56:42;20.90;99.90
19261;DHT22;75986;48.588;9.216;2024-03-22T03:59:09;20.90;99.90
19261;DHT22;75986;48.588;9.216;2024-03-22T04:01:35;20.90;99.90
19261;DHT22;75986;48.588;9.216;2024-03-22T04:04:04;20.90;99.90
19261;DHT22;75986;48.588;9.216;2024-03-22T04:06:33;20.90;99.90
19261;DHT22;75986;48.588;9.216;2024-03-22T04:08:59;20.90;99.90
19261;DHT22;75986;48.588;9.216;2024-03-22T04:11:25;20.90;99.90
19261;DHT22;75986;48.588;9.216;2024-03-22T04:13:52;20.90;99.90
19261;DHT22;75986;48.588;9.216;2024-03-22T04:16:18;20.80;99.90
19261;DHT22;75986;48.588;9.216;2024-03-22T04:18:45;20.80;99.90
19261;DHT22;75986;48.588;9.216;2024-03-22T04:21:12;20.80;99.90
19261;DHT22;75986;48.588;9.216;2024-03-22T04:23:41;20.80;99.90
19261;DHT22;75986;48.588;9.216;2024-03-22T04:26:07;20.80;99.90
19261;DHT22;75986;48.588;9.216;2024-03-22T04:28:34;20.80;99.90
19261;DHT22;75986;48.588;9.216;2024-03-22T04:31:01;20.80;99.90
19261;DHT22;75986;48.588;9.216;2024-03-22T04:33:29;20.80;99.90
19261;DHT22;75986;48.588;9.216;2024-03-22T04:35:56;20.80;99.90
19261;DHT22;75986;48.588;9.216;2024-03-22T04:38:23;20.80;99.90
19261;DHT22;75986;48.588;9.216;2024-03-22T04:40:52;20.80;99.90
19261;DHT22;75986;48.588;9.216;2024-03-22T04:43:19;20.80;99.90
19261;DHT22;75986;48.588;9.216;2024-03-22T04:45:47;20.80;99.90
19261;DHT22;75986;48.588;9.216;2024-03-22T04:48:14;20.80;99.90
19261;DHT22;75986;48.588;9.216;2024-03-22T04:50:41;20.80;99.90
19261;DHT22;75986;48.588;9.216;2024-03-22T04:53:08;20.80;99.90
19261;DHT22;75986;48.588;9.216;2024-03-22T04:55:34;20.80;99.90
19261;DHT22;75986;48.588;9.216;2024-03-22T04:58:04;20.80;99.90
19261;DHT22;75986;48.588;9.216;2024-03-22T05:00:30;20.80;99.90
19261;DHT22;75986;48.588;9.216;2024-03-22T05:02:57;20.80;99.90
19261;DHT22;75986;48.588;9.216;2024-03-22T05:05:23;20.80;99.90
19261;DHT22;75986;48.588;9.216;2024-03-22T05:07:50;20.80;99.90
19261;DHT22;75986;48.588;9.216;2024-03-22T05:10:17;20.80;99.90
19261;DHT22;75986;48.588;9.216;2024-03-22T05:12:43;20.80;99.90
19261;DHT22;75986;48.588;9.216;2024-03-22T05:15:12;20.80;99.90
19261;DHT22;75986;48.588;9.216;2024-03-22T05:17:39;20.80;99.90
19261;DHT22;75986;48.588;9.216;2024-03-22T05:20:07;20.80;99.90
19261;DHT22;75986;48.588;9.216;2024-03-22T05:22:34;20.80;99.90
19261;DHT22;75986;48.588;9.216;2024-03-22T05:25:00;20.80;99.90
19261;DHT22;75986;48.588;9.216;2024-03-22T05:27:27;20.80;99.90
19261;DHT22;75986;48.588;9.216;2024-03-22T05:29:53;20.80;99.90
19261;DHT22;75986;48.588;9.216;2024-03-22T05:32:22;20.80;99.90
19261;DHT22;75986;48.588;9.216;2024-03-22T05:34:49;20.80;99.90
19261;DHT22;75986;48.588;9.216;2024-03-22T05:37:15;20.80;99.90
19261;DHT22;75986;48.588;9.216;2024-03-22T05:39:42;20.80;99.90
19261;DHT22;75986;48.588;9.216;2024-03-22T05:42:08;20.80;99.90
19261;DHT22;75986;48.588;9.216;2024-03-22T05:44:35;20.80;99.90
19261;DHT22;75986;48.588;9.216;2024-03-22T05:47:02;20.80;99.90
19261;DHT22;75986;48.588;9.216;2024-03-22T05:49:31;20.80;99.90
19261;DHT22;75986;48.588;9.216;2024-03-22T05:51:57;20.80;99.90
19261;DHT22;75986;48.588;9.216;2024-03-22T05:54:24;20.80;99.90
19261;DHT22;75986;48.588;9.216;2024-03-22T05:56:51;20.80;99.90
19261;DHT22;75986;48.588;9.216;2024-03-22T05:59:18;20.80;99.90
19261;DHT22;75986;48.588;9.216;2024-03-22T06:01:44;20.80;99.90
19261;DHT22;75986;48.588;9.216;2024-03-22T06:04:10;20.80;99.90
19261;DHT22;75986;48.588;9.216;2024-03-22T06:06:40;20.80;99.90
19261;DHT22;75986;48.588;9.216;2024-03-22T06:09:06;20.80;99.90
19261;DHT22;75986;48.588;9.216;2024-03-22T06:11:33;20.80;99.90
19261;DHT22;75986;48.588;9.216;2024-03-22T06:14:00;20.90;99.90
19261;DHT22;75986;48.588;9.216;2024-03-22T06:16:26;20.90;99.90
19261;DHT22;75986;48.588;9.216;2024-03-22T06:18:53;20.90;99.90
19261;DHT22;75986;48.588;9.216;2024-03-22T06:21:19;20.90;99.90
19261;DHT22;75986;48.588;9.216;2024-03-22T06:23:49;20.90;99.90
19261;DHT22;75986;48.588;9.216;2024-03-22T06:26:16;20.80;99.90
19261;DHT22;75986;48.588;9.216;2024-03-22T06:28:42;20.90;99.90
19261;DHT22;75986;48.588;9.216;2024-03-22T06:31:09;20.90;99.90
19261;DHT22;75986;48.588;9.216;2024-03-22T06:33:35;20.90;99.90
19261;DHT22;75986;48.588;9.216;2024-03-22T06:36:02;20.90;99.90
19261;DHT22;75986;48.588;9.216;2024-03-22T06:38:29;20.90;99.90
19261;DHT22;75986;48.588;9.216;2024-03-22T06:40:58;20.90;99.90
19261;DHT22;75986;48.588;9.216;2024-03-22T06:43:25;20.90;99.90
19261;DHT22;75986;48.588;9.216;2024-03-22T06:45:51;20.90;99.90
19261;DHT22;75986;48.588;9.216;2024-03-22T06:48:18;20.90;99.90
19261;DHT22;75986;48.588;9.216;2024-03-22T06:50:44;20.90;99.90
19261;DHT22;75986;48.588;9.216;2024-03-22T06:53:11;20.90;99.90
19261;DHT22;75986;48.588;9.216;2024-03-22T06:55:38;20.90;99.90
19261;DHT22;75986;48.588;9.216;2024-03-22T06:58:07;20.90;99.90
19261;DHT22;75986;48.588;9.216;2024-03-22T07:00:34;20.90;99.90
19261;DHT22;75986;48.588;9.216;2024-03-22T07:03:01;20.90;99.90
19261;DHT22;75986;48.588;9.216;2024-03-22T07:05:28;20.90;99.90
19261;DHT22;75986;48.588;9.216;2024-03-22T07:07:55;20.90;99.90
19261;DHT22;75986;48.588;9.216;2024-03-22T07:10:22;20.90;99.90
19261;DHT22;75986;48.588;9.216;2024-03-22T07:12:48;20.90;99.90
19261;DHT22;75986;48.588;9.216;2024-03-22T07:15:17;21.00;99.90
19261;DHT22;75986;48.588;9.216;2024-03-22T07:17:43;21.00;99.90
19261;DHT22;75986;48.588;9.216;2024-03-22T07:20:10;21.00;99.90
19261;DHT22;75986;48.588;9.216;2024-03-22T07:22:37;20.90;99.90
19261;DHT22;75986;48.588;9.216;2024-03-22T07:25:04;20.90;99.90
19261;DHT22;75986;48.588;9.216;2024-03-22T07:27:31;20.90;99.90
19261;DHT22;75986;48.588;9.216;2024-03-22T07:29:57;20.90;99.90
19261;DHT22;75986;48.588;9.216;2024-03-22T07:32:26;21.00;99.90
19261;DHT22;75986;48.588;9.216;2024-03-22T07:34:53;21.00;99.90
19261;DHT22;75986;48.588;9.216;2024-03-22T07:37:19;21.00;99.90
19261;DHT22;75986;48.588;9.216;2024-03-22T07:39:47;21.00;99.90
19261;DHT22;75986;48.588;9.216;2024-03-22T07:42:13;21.10;99.90
19261;DHT22;75986;48.588;9.216;2024-03-22T07:44:40;21.10;99.90
19261;DHT22;75986;48.588;9.216;2024-03-22T07:47:06;21.10;99.90
19261;DHT22;75986;48.588;9.216;2024-03-22T07:49:35;21.10;99.90
19261;DHT22;75986;48.588;9.216;2024-03-22T07:52:02;21.10;99.90
19261;DHT22;75986;48.588;9.216;2024-03-22T07:54:29;21.10;99.90
19261;DHT22;75986;48.588;9.216;2024-03-22T07:56:55;21.20;99.90
19261;DHT22;75986;48.588;9.216;2024-03-22T07:59:22;21.20;99.90
19261;DHT22;75986;48.588;9.216;2024-03-22T08:01:49;21.20;99.90
19261;DHT22;75986;48.588;9.216;2024-03-22T08:04:16;21.20;99.90
19261;DHT22;75986;48.588;9.216;2024-03-22T08:06:46;21.20;99.90
19261;DHT22;75986;48.588;9.216;2024-03-22T08:09:12;21.20;99.90
19261;DHT22;75986;48.588;9.216;2024-03-22T08:11:39;21.20;99.90
19261;DHT22;75986;48.588;9.216;2024-03-22T08:14:05;21.20;99.90
19261;DHT22;75986;48.588;9.216;2024-03-22T08:16:32;21.30;99.90
19261;DHT22;75986;48.588;9.216;2024-03-22T08:18:58;21.20;99.90
19261;DHT22;75986;48.588;9.216;2024-03-22T08:21:25;21.30;99.90
19261;DHT22;75986;48.588;9.216;2024-03-22T08:23:54;21.30;99.90
19261;DHT22;75986;48.588;9.216;2024-03-22T08:26:20;21.30;99.90
19261;DHT22;75986;48.588;9.216;2024-03-22T08:28:47;21.30;99.90
19261;DHT22;75986;48.588;9.216;2024-03-22T08:31:14;21.30;99.90
19261;DHT22;75986;48.588;9.216;2024-03-22T08:33:41;21.30;99.90
19261;DHT22;75986;48.588;9.216;2024-03-22T08:36:07;21.40;99.90
19261;DHT22;75986;48.588;9.216;2024-03-22T08:38:34;21.40;99.90
19261;DHT22;75986;48.588;9.216;2024-03-22T08:41:03;21.40;99.90
19261;DHT22;75986;48.588;9.216;2024-03-22T08:43:30;21.40;99.90
19261;DHT22;75986;48.588;9.216;2024-03-22T08:45:56;21.40;99.90
19261;DHT22;75986;48.588;9.216;2024-03-22T08:48:23;21.40;99.90
19261;DHT22;75986;48.588;9.216;2024-03-22T08:50:49;21.40;99.90
19261;DHT22;75986;48.588;9.216;2024-03-22T08:53:16;21.40;99.90
19261;DHT22;75986;48.588;9.216;2024-03-22T08:55:46;21.40;99.90
19261;DHT22;75986;48.588;9.216;2024-03-22T08:58:16;21.50;99.90
19261;DHT22;75986;48.588;9.216;2024-03-22T09:00:43;21.50;99.90
19261;DHT22;75986;48.588;9.216;2024-03-22T09:03:11;21.50;99.90
19261;DHT22;75986;48.588;9.216;2024-03-22T09:05:37;21.50;99.90
19261;DHT22;75986;48.588;9.216;2024-03-22T09:08:04;21.50;99.90
19261;DHT22;75986;48.588;9.216;2024-03-22T09:10:31;21.50;99.90
19261;DHT22;75986;48.588;9.216;2024-03-22T09:12:58;21.50;99.90
19261;DHT22;75986;48.588;9.216;2024-03-22T09:15:27;21.50;99.90
19261;DHT22;75986;48.588;9.216;2024-03-22T09:17:53;21.50;99.90
19261;DHT22;75986;48.588;9.216;2024-03-22T09:20:20;21.50;99.90
19261;DHT22;75986;48.588;9.216;2024-03-22T09:22:46;21.50;99.90
19261;DHT22;75986;48.588;9.216;2024-03-22T09:25:13;21.50;99.90
19261;DHT22;75986;48.588;9.216;2024-03-22T09:27:39;21.50;99.90
19261;DHT22;75986;48.588;9.216;2024-03-22T09:30:07;21.60;99.90
19261;DHT22;75986;48.588;9.216;2024-03-22T09:32:36;21.50;99.90
19261;DHT22;75986;48.588;9.216;2024-03-22T09:35:02;21.60;99.90
19261;DHT22;75986;48.588;9.216;2024-03-22T09:37:29;21.60;99.90
19261;DHT22;75986;48.588;9.216;2024-03-22T09:39:55;21.60;99.90
19261;DHT22;75986;48.588;9.216;2024-03-22T09:42:23;21.60;99.90
19261;DHT22;75986;48.588;9.216;2024-03-22T09:44:50;21.60;99.90
19261;DHT22;75986;48.588;9.216;2024-03-22T09:47:17;21.60;99.90
19261;DHT22;75986;48.588;9.216;2024-03-22T09:49:47;21.60;99.90
19261;DHT22;75986;48.588;9.216;2024-03-22T09:52:14;21.60;99.90
19261;DHT22;75986;48.588;9.216;2024-03-22T09:54:41;21.60;99.90
19261;DHT22;75986;48.588;9.216;2024-03-22T09:57:11;21.70;99.90
19261;DHT22;75986;48.588;9.216;2024-03-22T09:59:40;21.70;99.90
19261;DHT22;75986;48.588;9.216;2024-03-22T10:02:09;21.70;99.90
19261;DHT22;75986;48.588;9.216;2024-03-22T10:04:37;21.70;99.90
19261;DHT22;75986;48.588;9.216;2024-03-22T10:07:07;21.70;99.90
19261;DHT22;75986;48.588;9.216;2024-03-22T10:09:34;21.70;99.90
19261;DHT22;75986;48.588;9.216;2024-03-22T10:12:01;21.70;99.90
19261;DHT22;75986;48.588;9.216;2024-03-22T10:14:27;21.70;99.90
19261;DHT22;75986;48.588;9.216;2024-03-22T10:16:54;21.70;99.90
19261;DHT22;75986;48.588;9.216;2024-03-22T10:19:20;21.70;99.90
19261;DHT22;75986;48.588;9.216;2024-03-22T10:21:47;21.70;99.90
19261;DHT22;75986;48.588;9.216;2024-03-22T10:24:17;21.70;99.90
19261;DHT22;75986;48.588;9.216;2024-03-22T10:26:43;21.80;99.90
19261;DHT22;75986;48.588;9.216;2024-03-22T10:29:11;21.80;99.90
19261;DHT22;75986;48.588;9.216;2024-03-22T10:31:38;21.80;99.90
19261;DHT22;75986;48.588;9.216;2024-03-22T10:34:06;21.80;99.90
19261;DHT22;75986;48.588;9.216;2024-03-22T10:36:34;21.70;99.90
19261;DHT22;75986;48.588;9.216;2024-03-22T10:39:02;21.80;99.90
19261;DHT22;75986;48.588;9.216;2024-03-22T10:41:32;21.80;99.90
19261;DHT22;75986;48.588;9.216;2024-03-22T10:43:59;21.80;99.90
19261;DHT22;75986;48.588;9.216;2024-03-22T10:46:29;21.80;99.90
19261;DHT22;75986;48.588;9.216;2024-03-22T10:48:57;21.80;99.90
19261;DHT22;75986;48.588;9.216;2024-03-22T10:51:24;21.80;99.90
19261;DHT22;75986;48.588;9.216;2024-03-22T10:53:53;21.80;99.90
19261;DHT22;75986;48.588;9.216;2024-03-22T10:56:23;21.80;99.90
19261;DHT22;75986;48.588;9.216;2024-03-22T10:58:53;21.80;99.90
19261;DHT22;75986;48.588;9.216;2024-03-22T11:01:23;21.80;99.90
19261;DHT22;75986;48.588;9.216;2024-03-22T11:03:50;21.80;99.90
19261;DHT22;75986;48.588;9.216;2024-03-22T11:06:20;21.80;99.90
19261;DHT22;75986;48.588;9.216;2024-03-22T11:08:51;21.80;99.90
19261;DHT22;75986;48.588;9.216;2024-03-22T11:11:18;21.80;99.90
19261;DHT22;75986;48.588;9.216;2024-03-22T11:13:47;21.80;99.90
19261;DHT22;75986;48.588;9.216;2024-03-22T11:16:17;21.80;99.90
19261;DHT22;75986;48.588;9.216;2024-03-22T11:18:43;21.80;99.90
19261;DHT22;75986;48.588;9.216;2024-03-22T11:21:10;21.90;99.90
19261;DHT22;75986;48.588;9.216;2024-03-22T11:23:37;21.80;99.90
19261;DHT22;75986;48.588;9.216;2024-03-22T11:26:04;21.90;99.80
19261;DHT22;75986;48.588;9.216;2024-03-22T11:28:30;21.90;99.70
19261;DHT22;75986;48.588;9.216;2024-03-22T11:30:57;21.90;99.60
19261;DHT22;75986;48.588;9.216;2024-03-22T11:33:26;21.90;99.50
19261;DHT22;75986;48.588;9.216;2024-03-22T11:35:53;21.90;99.30
19261;DHT22;75986;48.588;9.216;2024-03-22T11:38:20;21.90;99.10
19261;DHT22;75986;48.588;9.216;2024-03-22T11:40:46;21.90;99.20
19261;DHT22;75986;48.588;9.216;2024-03-22T11:43:14;21.90;99.20
19261;DHT22;75986;48.588;9.216;2024-03-22T11:45:42;21.90;99.20
19261;DHT22;75986;48.588;9.216;2024-03-22T11:48:09;21.90;99.20
19261;DHT22;75986;48.588;9.216;2024-03-22T11:50:39;21.90;99.10
19261;DHT22;75986;48.588;9.216;2024-03-22T11:53:06;21.90;99.00
19261;DHT22;75986;48.588;9.216;2024-03-22T11:55:32;22.00;98.90
19261;DHT22;75986;48.588;9.216;2024-03-22T11:58:01;22.00;98.90
19261;DHT22;75986;48.588;9.216;2024-03-22T12:00:28;22.00;97.90
19261;DHT22;75986;48.588;9.216;2024-03-22T12:02:54;22.00;97.20
19261;DHT22;75986;48.588;9.216;2024-03-22T12:05:21;21.90;96.70
19261;DHT22;75986;48.588;9.216;2024-03-22T12:07:52;22.00;96.80
19261;DHT22;75986;48.588;9.216;2024-03-22T12:10:18;22.00;96.60
19261;DHT22;75986;48.588;9.216;2024-03-22T12:12:45;22.00;97.00
19261;DHT22;75986;48.588;9.216;2024-03-22T12:15:11;22.00;95.80
19261;DHT22;75986;48.588;9.216;2024-03-22T12:17:38;22.00;95.80
19261;DHT22;75986;48.588;9.216;2024-03-22T12:20:06;22.00;95.30
19261;DHT22;75986;48.588;9.216;2024-03-22T12:22:32;22.00;95.50
19261;DHT22;75986;48.588;9.216;2024-03-22T12:25:01;22.00;95.10
19261;DHT22;75986;48.588;9.216;2024-03-22T12:27:28;22.00;95.00
19261;DHT22;75986;48.588;9.216;2024-03-22T12:29:54;22.00;94.70
19261;DHT22;75986;48.588;9.216;2024-03-22T12:32:21;22.00;94.60
19261;DHT22;75986;48.588;9.216;2024-03-22T12:34:47;22.00;94.40
19261;DHT22;75986;48.588;9.216;2024-03-22T12:37:14;22.00;94.40
19261;DHT22;75986;48.588;9.216;2024-03-22T12:39:41;22.00;94.40
19261;DHT22;75986;48.588;9.216;2024-03-22T12:42:10;22.00;93.70
19261;DHT22;75986;48.588;9.216;2024-03-22T12:44:36;22.00;94.10
19261;DHT22;75986;48.588;9.216;2024-03-22T12:47:03;22.00;93.60
19261;DHT22;75986;48.588;9.216;2024-03-22T12:49:29;22.00;93.80
19261;DHT22;75986;48.588;9.216;2024-03-22T12:51:56;22.00;93.60
19261;DHT22;75986;48.588;9.216;2024-03-22T12:54:23;21.90;93.50
19261;DHT22;75986;48.588;9.216;2024-03-22T12:56:49;22.00;93.60
19261;DHT22;75986;48.588;9.216;2024-03-22T12:59:18;21.90;93.60
19261;DHT22;75986;48.588;9.216;2024-03-22T13:01:45;22.00;93.50
19261;DHT22;75986;48.588;9.216;2024-03-22T13:04:13;22.00;93.60
19261;DHT22;75986;48.588;9.216;2024-03-22T13:06:40;22.00;93.50
19261;DHT22;75986;48.588;9.216;2024-03-22T13:09:07;22.00;93.60
19261;DHT22;75986;48.588;9.216;2024-03-22T13:11:34;22.00;93.40
19261;DHT22;75986;48.588;9.216;2024-03-22T13:14:00;22.00;93.50
19261;DHT22;75986;48.588;9.216;2024-03-22T13:16:29;22.00;93.40
19261;DHT22;75986;48.588;9.216;2024-03-22T13:18:56;22.00;93.40
19261;DHT22;75986;48.588;9.216;2024-03-22T13:21:22;22.00;93.60
19261;DHT22;75986;48.588;9.216;2024-03-22T13:23:49;22.00;93.50
19261;DHT22;75986;48.588;9.216;2024-03-22T13:26:15;22.00;93.60
19261;DHT22;75986;48.588;9.216;2024-03-22T13:28:42;22.00;93.60
19261;DHT22;75986;48.588;9.216;2024-03-22T13:31:08;22.00;93.20
19261;DHT22;75986;48.588;9.216;2024-03-22T13:33:38;22.00;93.20
19261;DHT22;75986;48.588;9.216;2024-03-22T13:36:04;22.10;93.30
19261;DHT22;75986;48.588;9.216;2024-03-22T13:38:31;22.00;93.20
19261;DHT22;75986;48.588;9.216;2024-03-22T13:40:58;22.10;93.00
19261;DHT22;75986;48.588;9.216;2024-03-22T13:43:26;22.00;93.00
19261;DHT22;75986;48.588;9.216;2024-03-22T13:45:53;22.00;93.20
19261;DHT22;75986;48.588;9.216;2024-03-22T13:48:21;22.10;93.20
19261;DHT22;75986;48.588;9.216;2024-03-22T13:50:53;22.10;93.00
19261;DHT22;75986;48.588;9.216;2024-03-22T13:53:21;22.00;92.90
19261;DHT22;75986;48.588;9.216;2024-03-22T13:55:48;22.00;92.90
19261;DHT22;75986;48.588;9.216;2024-03-22T13:58:14;22.00;93.00
19261;DHT22;75986;48.588;9.216;2024-03-22T14:00:41;22.10;93.00
19261;DHT22;75986;48.588;9.216;2024-03-22T14:03:07;22.00;92.90
19261;DHT22;75986;48.588;9.216;2024-03-22T14:05:33;22.00;92.80
19261;DHT22;75986;48.588;9.216;2024-03-22T14:08:03;22.00;92.90
19261;DHT22;75986;48.588;9.216;2024-03-22T14:10:30;22.00;93.00
19261;DHT22;75986;48.588;9.216;2024-03-22T14:12:58;22.00;93.10
19261;DHT22;75986;48.588;9.216;2024-03-22T14:15:25;22.10;93.10
19261;DHT22;75986;48.588;9.216;2024-03-22T14:17:51;22.10;93.20
19261;DHT22;75986;48.588;9.216;2024-03-22T14:20:18;22.10;93.20
19261;DHT22;75986;48.588;9.216;2024-03-22T14:22:45;22.10;93.20
19261;DHT22;75986;48.588;9.216;2024-03-22T14:25:14;22.10;93.20
19261;DHT22;75986;48.588;9.216;2024-03-22T14:27:41;22.10;92.50
19261;DHT22;75986;48.588;9.216;2024-03-22T14:30:09;22.10;90.90
19261;DHT22;75986;48.588;9.216;2024-03-22T14:32:35;22.00;90.60
19261;DHT22;75986;48.588;9.216;2024-03-22T14:35:02;22.00;90.60
19261;DHT22;75986;48.588;9.216;2024-03-22T14:37:30;22.00;91.00
19261;DHT22;75986;48.588;9.216;2024-03-22T14:39:57;22.00;91.30
19261;DHT22;75986;48.588;9.216;2024-03-22T14:42:26;22.00;91.50
19261;DHT22;75986;48.588;9.216;2024-03-22T14:44:53;22.00;91.50
19261;DHT22;75986;48.588;9.216;2024-03-22T14:47:20;22.00;91.30
19261;DHT22;75986;48.588;9.216;2024-03-22T14:49:49;22.00;91.00
19261;DHT22;75986;48.588;9.216;2024-03-22T14:52:15;22.10;91.30
19261;DHT22;75986;48.588;9.216;2024-03-22T14:54:42;22.00;91.00
19261;DHT22;75986;48.588;9.216;2024-03-22T14:57:08;22.00;91.20
19261;DHT22;75986;48.588;9.216;2024-03-22T14:59:37;22.00;91.10
19261;DHT22;75986;48.588;9.216;2024-03-22T15:02:04;22.00;91.10
19261;DHT22;75986;48.588;9.216;2024-03-22T15:04:31;22.00;90.80
19261;DHT22;75986;48.588;9.216;2024-03-22T15:06:58;22.00;91.00
19261;DHT22;75986;48.588;9.216;2024-03-22T15:09:24;22.00;90.90
19261;DHT22;75986;48.588;9.216;2024-03-22T15:11:51;22.10;90.70
19261;DHT22;75986;48.588;9.216;2024-03-22T15:14:17;22.00;90.50
19261;DHT22;75986;48.588;9.216;2024-03-22T15:16:46;22.00;90.60
19261;DHT22;75986;48.588;9.216;2024-03-22T15:19:13;22.00;90.40
19261;DHT22;75986;48.588;9.216;2024-03-22T15:21:39;22.00;90.20
19261;DHT22;75986;48.588;9.216;2024-03-22T15:24:06;22.00;90.10
19261;DHT22;75986;48.588;9.216;2024-03-22T15:26:33;22.00;90.10
19261;DHT22;75986;48.588;9.216;2024-03-22T15:29:00;22.00;90.40
19261;DHT22;75986;48.588;9.216;2024-03-22T15:31:26;22.00;89.80